Beauraing, Belgium
Current Conditions -  °F | °C
As of 4:25 AM on Sunday 23 Nov 2014 (Local Time) from EBFS Reporting Station
Broken Clouds Broken Clouds  
Wind Chill: 10°   Ceiling: 11000
Heat Index: 10°   Visibility: 6mi
Dew Point:   Wind: 7mph
Humidity: 94%   Direction: 140°SE
Pressure: 30.03"   Gusts: NA
Location:  50.11°N, 4.96°E
Report Text: EBFS 230325Z 14006KT 9999 BKN110 10/09 Q1017 BLU
Loading
Personal Weather Stations






























Interactive Weather Map New forecast layout! Learn more

10-Day Weather Forecast

Advertisements
Track Severe Weather on mobile